Time;durP1;ratioP1;P1;durP2;ratioP2;P2;SDS_P1;SDS_P2;PMS_P1;PMS_P2;Temp;Humidity;BMP_temperature;BMP_pressure;BME280_temperature;BME280_humidity;BME280_pressure;Samples;Min_cycle;Max_cycle;Signal;HPM_P1;HPM_P2
2021/06/18 00:00:47;;;;;;;6.30;5.07;;;24.60;64.50;;;;;;5080959;28;20092;-89
2021/06/18 00:03:13;;;;;;;6.38;5.25;;;24.50;64.60;;;;;;5082729;28;20021;-88
2021/06/18 00:05:39;;;;;;;6.40;5.80;;;24.50;64.80;;;;;;5081380;28;20020;-90
2021/06/18 00:08:05;;;;;;;6.68;5.38;;;24.40;65.70;;;;;;5079880;28;20071;-89
2021/06/18 00:10:30;;;;;;;7.97;6.93;;;24.30;65.10;;;;;;5081456;28;20029;-89
2021/06/18 00:12:56;;;;;;;7.53;6.80;;;24.30;65.30;;;;;;5080716;28;20464;-87
2021/06/18 00:15:23;;;;;;;7.88;6.30;;;24.30;65.50;;;;;;5081717;28;20027;-89
2021/06/18 00:17:50;;;;;;;7.18;6.47;;;24.30;65.60;;;;;;5082231;28;20043;-89
2021/06/18 00:20:15;;;;;;;8.77;6.20;;;24.30;65.70;;;;;;5080687;28;20024;-89
2021/06/18 00:22:42;;;;;;;7.45;6.65;;;24.20;65.80;;;;;;5081970;28;20490;-89
2021/06/18 00:25:09;;;;;;;7.78;6.28;;;24.20;66.00;;;;;;5079870;28;20123;-89
2021/06/18 00:27:35;;;;;;;6.97;6.32;;;24.10;66.10;;;;;;5078960;28;20496;-89
2021/06/18 00:30:01;;;;;;;8.40;6.55;;;24.10;66.10;;;;;;5079203;28;20032;-89
2021/06/18 00:33:10;;;;;;;7.15;6.47;;;24.10;66.20;;;;;;5083228;28;20021;-88
2021/06/18 00:35:36;;;;;;;7.55;6.78;;;24.00;66.40;;;;;;5082108;28;20060;-88
2021/06/18 00:38:02;;;;;;;7.90;6.85;;;23.90;66.40;;;;;;5080854;28;20025;-89
2021/06/18 00:40:27;;;;;;;8.07;6.53;;;23.90;66.50;;;;;;5082483;28;20032;-89
2021/06/18 00:42:53;;;;;;;8.15;7.35;;;23.80;66.60;;;;;;5083943;28;20028;-87
2021/06/18 00:45:19;;;;;;;8.05;7.22;;;23.80;66.90;;;;;;5082598;28;20024;-88
2021/06/18 00:47:50;;;;;;;8.18;7.38;;;23.70;66.90;;;;;;5083687;28;20094;-89
2021/06/18 00:50:17;;;;;;;8.60;7.70;;;23.70;67.10;;;;;;5082996;28;20044;-89
2021/06/18 00:52:43;;;;;;;8.82;7.85;;;23.70;67.30;;;;;;5084088;28;20032;-88
2021/06/18 00:55:10;;;;;;;8.77;7.88;;;23.60;67.30;;;;;;5085492;28;20029;-88
2021/06/18 00:57:37;;;;;;;9.02;7.60;;;23.60;67.50;;;;;;5084232;28;20032;-88
2021/06/18 01:00:05;;;;;;;8.93;8.02;;;23.60;67.50;;;;;;5082224;28;20028;-88
2021/06/18 01:02:31;;;;;;;8.13;7.18;;;23.60;67.60;;;;;;5082125;28;20047;-87
2021/06/18 01:04:57;;;;;;;8.88;7.97;;;23.60;68.20;;;;;;5082784;28;20036;-88
2021/06/18 01:07:34;;;;;;;8.80;7.75;;;23.60;67.60;;;;;;5081204;28;20052;-88
2021/06/18 01:10:13;;;;;;;8.45;7.55;;;23.60;67.70;;;;;;5080359;28;20087;-88
2021/06/18 01:13:00;;;;;;;9.20;8.30;;;23.60;67.60;;;;;;5083203;28;20078;-89
2021/06/18 01:15:37;;;;;;;9.00;8.10;;;23.60;67.80;;;;;;5083710;28;20029;-90
2021/06/18 01:18:07;;;;;;;8.80;7.57;;;23.50;67.70;;;;;;5081239;28;20033;-88
2021/06/18 01:21:23;;;;;;;10.10;9.07;;;23.50;67.70;;;;;;5082569;28;20035;-89
2021/06/18 01:24:11;;;;;;;8.65;7.85;;;23.50;67.90;;;;;;5022730;28;20116;-89
2021/06/18 01:26:43;;;;;;;9.30;8.38;;;23.40;68.00;;;;;;5081312;28;20026;-88
2021/06/18 01:29:09;;;;;;;9.52;8.52;;;23.40;68.10;;;;;;5078129;28;20064;-89
2021/06/18 01:31:41;;;;;;;9.35;8.32;;;23.30;68.10;;;;;;5078728;28;20029;-89
2021/06/18 01:34:17;;;;;;;10.55;9.55;;;23.30;68.30;;;;;;5081715;28;20032;-89
2021/06/18 01:36:50;;;;;;;10.30;9.20;;;23.20;68.40;;;;;;5080789;28;20088;-89
2021/06/18 01:39:17;;;;;;;11.68;10.25;;;23.20;68.60;;;;;;5078637;28;20063;-89
2021/06/18 01:41:45;;;;;;;9.75;8.65;;;23.10;68.90;;;;;;5080016;28;20033;-89
2021/06/18 01:44:12;;;;;;;9.60;8.40;;;23.00;69.00;;;;;;5080746;28;20043;-89
2021/06/18 01:46:38;;;;;;;10.38;9.13;;;23.00;69.10;;;;;;5081019;28;20044;-89
2021/06/18 01:49:08;;;;;;;9.73;8.73;;;23.00;69.20;;;;;;5079807;28;20020;-89
2021/06/18 01:51:35;;;;;;;9.70;8.75;;;22.90;69.40;;;;;;5080420;28;20043;-89
2021/06/18 01:54:02;;;;;;;10.80;9.70;;;22.90;69.40;;;;;;5084661;28;20056;-88
2021/06/18 01:56:33;;;;;;;9.50;8.60;;;22.90;69.60;;;;;;5084053;28;20025;-87
2021/06/18 01:59:01;;;;;;;10.20;9.20;;;22.90;69.60;;;;;;5086226;28;20036;-89
2021/06/18 02:01:32;;;;;;;11.63;9.95;;;22.80;69.60;;;;;;5088198;28;20040;-88
2021/06/18 02:03:57;;;;;;;11.20;10.07;;;22.80;69.80;;;;;;5085572;28;20119;-89
2021/06/18 02:06:25;;;;;;;10.73;9.63;;;22.90;69.80;;;;;;5085389;28;20133;-88
2021/06/18 02:08:55;;;;;;;11.00;9.80;;;22.80;69.80;;;;;;5084131;28;20050;-88
2021/06/18 02:11:25;;;;;;;11.15;8.90;;;22.90;69.90;;;;;;5084409;28;20059;-87
2021/06/18 02:13:53;;;;;;;10.98;9.60;;;22.90;69.80;;;;;;5083459;28;20365;-86
2021/06/18 02:16:19;;;;;;;9.82;8.90;;;22.90;69.80;;;;;;5085862;28;20048;-88
2021/06/18 02:18:46;;;;;;;10.82;9.73;;;22.90;69.70;;;;;;5087273;28;20035;-88
2021/06/18 02:21:14;;;;;;;11.10;9.75;;;23.00;69.70;;;;;;5088819;28;20185;-87
2021/06/18 02:23:40;;;;;;;9.52;8.57;;;23.00;69.70;;;;;;5084753;28;20037;-87
2021/06/18 02:26:07;;;;;;;10.50;9.00;;;23.00;69.60;;;;;;5084846;28;20036;-87
2021/06/18 02:28:33;;;;;;;9.25;8.32;;;23.00;69.50;;;;;;5083745;28;20392;-87
2021/06/18 02:31:01;;;;;;;10.57;8.98;;;23.10;69.50;;;;;;5084792;28;20016;-87
2021/06/18 02:33:26;;;;;;;11.73;9.55;;;23.20;69.50;;;;;;5085883;28;20028;-88
2021/06/18 02:35:52;;;;;;;12.00;10.38;;;23.10;69.40;;;;;;5086205;28;20487;-87
2021/06/18 02:38:18;;;;;;;10.25;9.25;;;23.10;69.40;;;;;;5083495;28;20029;-87
2021/06/18 02:40:45;;;;;;;10.68;9.57;;;23.10;69.50;;;;;;5084916;28;20028;-85
2021/06/18 02:43:10;;;;;;;11.07;9.98;;;23.10;69.60;;;;;;5086452;28;20028;-85
2021/06/18 02:45:37;;;;;;;11.05;9.15;;;23.10;69.70;;;;;;5086401;28;20044;-88
2021/06/18 02:48:10;;;;;;;9.55;8.55;;;23.00;69.60;;;;;;5085831;28;20039;-86
2021/06/18 02:50:41;;;;;;;11.25;9.10;;;23.00;69.70;;;;;;5084867;28;20029;-88
2021/06/18 02:53:29;;;;;;;9.40;8.55;;;23.00;69.70;;;;;;5084180;28;20024;-88
2021/06/18 02:56:13;;;;;;;9.82;8.75;;;23.10;69.80;;;;;;5080495;28;20043;-87
2021/06/18 02:59:04;;;;;;;10.15;9.05;;;23.00;69.60;;;;;;5077454;28;20035;-89
2021/06/18 03:01:35;;;;;;;11.02;9.77;;;23.00;69.70;;;;;;5076255;28;20123;-89
2021/06/18 03:04:01;;;;;;;9.90;8.90;;;23.00;69.80;;;;;;5078359;28;20021;-89
2021/06/18 03:06:30;;;;;;;9.88;8.88;;;22.90;69.90;;;;;;5079750;28;20488;-89
2021/06/18 03:09:00;;;;;;;10.35;9.27;;;22.90;70.00;;;;;;5077454;28;20024;-87
2021/06/18 03:14:49;;;;;;;10.15;9.02;;;22.90;70.10;;;;;;5081173;28;20066;-88
2021/06/18 03:17:18;;;;;;;10.48;8.80;;;22.80;70.00;;;;;;5078280;28;20036;-90
2021/06/18 03:19:48;;;;;;;11.55;9.60;;;22.90;70.20;;;;;;5078036;28;20115;-89
2021/06/18 03:22:15;;;;;;;11.48;10.27;;;22.90;70.20;;;;;;5078669;28;20024;-89
2021/06/18 03:24:45;;;;;;;10.85;9.75;;;22.80;70.20;;;;;;5079674;28;20036;-89
2021/06/18 03:27:12;;;;;;;13.02;9.80;;;22.80;70.30;;;;;;5079708;28;20477;-90
2021/06/18 03:29:38;;;;;;;11.73;10.63;;;22.80;70.30;;;;;;5078215;28;20488;-90
2021/06/18 03:32:05;;;;;;;12.77;10.60;;;22.80;70.40;;;;;;5078534;28;20104;-89
2021/06/18 03:34:32;;;;;;;12.50;11.05;;;22.80;70.60;;;;;;5078323;28;20067;-90
2021/06/18 03:37:01;;;;;;;12.20;10.57;;;22.70;70.70;;;;;;5078157;28;20036;-89
2021/06/18 03:39:27;;;;;;;10.63;9.57;;;22.70;70.90;;;;;;5079521;28;20040;-88
2021/06/18 03:41:53;;;;;;;12.88;11.50;;;22.70;70.90;;;;;;5078511;28;20422;-90
2021/06/18 03:44:22;;;;;;;11.00;10.00;;;22.70;70.90;;;;;;5077956;28;20028;-88
2021/06/18 03:46:50;;;;;;;11.95;10.75;;;22.70;70.90;;;;;;5077353;28;20076;-86
2021/06/18 03:49:17;;;;;;;12.02;10.88;;;22.70;70.90;;;;;;5078259;28;20027;-89
2021/06/18 03:51:42;;;;;;;11.90;10.15;;;22.70;70.90;;;;;;5078913;28;20090;-87
2021/06/18 03:54:08;;;;;;;11.60;10.30;;;22.70;71.00;;;;;;5078442;28;20025;-88
2021/06/18 03:56:36;;;;;;;10.48;9.45;;;22.80;70.90;;;;;;5078371;28;20043;-88
2021/06/18 03:59:01;;;;;;;9.90;8.90;;;22.80;70.80;;;;;;5077892;28;20024;-88
2021/06/18 04:01:28;;;;;;;12.13;10.60;;;22.90;70.70;;;;;;5079581;28;20102;-89
2021/06/18 04:03:57;;;;;;;11.95;10.07;;;23.00;70.70;;;;;;5078715;28;20064;-89
2021/06/18 04:06:24;;;;;;;10.68;9.63;;;23.00;70.60;;;;;;5078391;28;20044;-88
2021/06/18 04:08:51;;;;;;;10.00;9.00;;;23.00;70.60;;;;;;5077912;28;20017;-89
2021/06/18 04:11:17;;;;;;;11.07;9.48;;;23.10;70.50;;;;;;5079012;28;20090;-89
2021/06/18 04:13:43;;;;;;;11.98;9.95;;;23.20;70.40;;;;;;5080880;28;20021;-89
2021/06/18 04:16:10;;;;;;;10.75;9.65;;;23.30;70.30;;;;;;5081956;28;20446;-88
2021/06/18 04:18:41;;;;;;;12.02;10.88;;;23.30;70.10;;;;;;5081753;28;20048;-88
2021/06/18 04:21:12;;;;;;;17.13;14.10;;;23.30;70.20;;;;;;5081179;28;20024;-88
2021/06/18 04:27:00;;;;;;;11.30;8.00;;;23.10;71.40;;;;;;5077730;28;20090;-89
2021/06/18 04:29:25;;;;;;;8.18;7.10;;;22.90;71.20;;;;;;5082292;28;20025;-89
2021/06/18 04:31:51;;;;;;;10.02;8.30;;;22.90;71.00;;;;;;5080894;28;20024;-86
2021/06/18 04:34:18;;;;;;;10.27;8.70;;;22.90;71.00;;;;;;5081228;28;20526;-88
2021/06/18 04:36:45;;;;;;;9.73;8.73;;;22.90;71.10;;;;;;5081469;28;20500;-88
2021/06/18 04:39:11;;;;;;;8.82;8.05;;;22.90;71.40;;;;;;5079369;28;20092;-88
2021/06/18 04:41:36;;;;;;;8.85;7.95;;;22.90;71.60;;;;;;5081814;28;20064;-88
2021/06/18 04:44:03;;;;;;;8.10;7.30;;;22.90;71.80;;;;;;5080394;28;20024;-86
2021/06/18 04:46:29;;;;;;;10.18;8.05;;;22.90;72.00;;;;;;5081778;28;20040;-88
2021/06/18 04:48:56;;;;;;;10.82;8.73;;;22.90;72.20;;;;;;5081430;28;20016;-88
2021/06/18 04:51:22;;;;;;;7.97;7.18;;;22.90;72.50;;;;;;5080377;28;20028;-88
2021/06/18 04:53:51;;;;;;;10.35;9.00;;;22.90;72.80;;;;;;5081096;28;20029;-88
2021/06/18 04:56:17;;;;;;;9.00;8.10;;;22.80;73.40;;;;;;5082745;28;20044;-88
2021/06/18 04:58:42;;;;;;;10.50;8.27;;;22.80;73.60;;;;;;5079535;28;20047;-88
2021/06/18 05:01:08;;;;;;;15.48;9.27;;;22.70;73.80;;;;;;5080426;28;20025;-87
2021/06/18 05:03:34;;;;;;;15.10;9.70;;;22.50;74.80;;;;;;5072635;28;20468;-84
2021/06/18 05:05:59;;;;;;;13.30;10.00;;;22.10;76.50;;;;;;5072882;28;20089;-83
2021/06/18 05:08:25;;;;;;;15.60;12.27;;;21.70;78.40;;;;;;5072708;28;20039;-82
2021/06/18 05:10:51;;;;;;;14.30;12.50;;;21.50;79.80;;;;;;5073055;28;20109;-82
2021/06/18 05:13:16;;;;;;;13.15;10.60;;;21.20;81.30;;;;;;5071336;28;20074;-82
2021/06/18 05:15:42;;;;;;;10.25;9.25;;;21.00;82.00;;;;;;5071380;28;20036;-81
2021/06/18 05:18:08;;;;;;;10.73;9.63;;;20.90;81.90;;;;;;5071401;28;20044;-81
2021/06/18 05:20:33;;;;;;;11.13;10.02;;;20.80;82.00;;;;;;5071236;28;20481;-81
2021/06/18 05:22:59;;;;;;;12.13;10.88;;;20.70;82.20;;;;;;5071466;28;20044;-80
2021/06/18 05:25:25;;;;;;;11.27;10.25;;;20.70;82.50;;;;;;5071293;28;20051;-81
2021/06/18 05:28:21;;;;;;;13.60;12.15;;;20.70;82.40;;;;;;5071213;28;20028;-80
2021/06/18 05:30:47;;;;;;;13.45;11.57;;;20.70;82.90;;;;;;5071200;28;20025;-80
2021/06/18 05:33:12;;;;;;;13.55;12.25;;;20.80;82.80;;;;;;5074519;28;20101;-80
2021/06/18 05:35:41;;;;;;;14.90;13.40;;;20.80;83.00;;;;;;5074857;28;20020;-81
2021/06/18 05:38:07;;;;;;;13.95;12.55;;;20.80;83.50;;;;;;5074937;28;20032;-79
2021/06/18 05:40:33;;;;;;;13.98;12.63;;;20.90;83.50;;;;;;5074805;28;20025;-80
2021/06/18 05:42:58;;;;;;;13.25;12.05;;;20.80;83.40;;;;;;5075965;28;20086;-80
2021/06/18 05:45:24;;;;;;;14.63;13.23;;;20.90;83.30;;;;;;5074397;28;20044;-80
2021/06/18 05:47:50;;;;;;;14.40;12.95;;;21.00;83.40;;;;;;5057959;28;20033;-81
2021/06/18 05:50:15;;;;;;;11.30;10.30;;;21.00;83.30;;;;;;5058014;28;20565;-81
2021/06/18 05:52:41;;;;;;;12.05;10.85;;;21.10;83.30;;;;;;5058017;28;20020;-81
2021/06/18 05:55:07;;;;;;;10.70;9.63;;;21.20;83.10;;;;;;5057873;28;20029;-80
2021/06/18 05:57:33;;;;;;;10.50;9.57;;;21.20;83.00;;;;;;5057735;28;20055;-81
2021/06/18 05:59:59;;;;;;;11.80;10.60;;;21.30;82.90;;;;;;5057949;28;20060;-81
2021/06/18 06:02:25;;;;;;;11.93;10.82;;;21.30;82.90;;;;;;5075503;28;20024;-81
2021/06/18 06:04:51;;;;;;;11.07;10.07;;;21.30;82.80;;;;;;5057899;28;20063;-82
2021/06/18 06:07:16;;;;;;;10.95;9.85;;;21.30;82.80;;;;;;5057660;28;20033;-82
2021/06/18 06:09:42;;;;;;;11.55;10.43;;;21.40;82.80;;;;;;5057487;28;20025;-81
2021/06/18 06:12:08;;;;;;;11.32;10.32;;;21.40;82.80;;;;;;5058038;28;20027;-82
2021/06/18 06:14:34;;;;;;;11.27;10.18;;;21.50;82.80;;;;;;5057371;28;20032;-82
2021/06/18 06:17:52;;;;;;;10.75;9.75;;;21.50;82.70;;;;;;5057583;28;20123;-82
2021/06/18 06:20:18;;;;;;;10.15;9.23;;;21.50;82.70;;;;;;5057214;28;20037;-82
2021/06/18 06:22:44;;;;;;;11.60;10.50;;;21.60;82.40;;;;;;5057412;28;20032;-83
2021/06/18 06:25:10;;;;;;;11.00;10.00;;;21.70;82.60;;;;;;5057620;28;20036;-82
2021/06/18 06:27:36;;;;;;;11.15;10.15;;;21.70;82.70;;;;;;5057371;28;20084;-81
2021/06/18 06:30:03;;;;;;;11.68;10.63;;;21.70;82.80;;;;;;5057435;28;20108;-82
2021/06/18 06:32:29;;;;;;;10.60;9.60;;;21.80;82.80;;;;;;5057379;28;20025;-82
2021/06/18 06:34:57;;;;;;;9.25;8.45;;;21.90;82.60;;;;;;5057044;28;20036;-83
2021/06/18 06:37:24;;;;;;;10.50;9.60;;;22.00;82.30;;;;;;5057180;28;20392;-83
2021/06/18 06:39:50;;;;;;;10.40;9.40;;;22.10;82.30;;;;;;5057085;28;20403;-82
2021/06/18 06:42:15;;;;;;;10.82;9.75;;;22.20;82.10;;;;;;5075417;28;20040;-84
2021/06/18 06:44:41;;;;;;;10.10;9.20;;;22.20;82.00;;;;;;5056879;28;20033;-82
2021/06/18 06:47:08;;;;;;;10.80;9.80;;;22.30;81.90;;;;;;5075104;28;20048;-83
2021/06/18 06:49:33;;;;;;;10.20;9.30;;;22.40;81.70;;;;;;5057134;28;20039;-83
2021/06/18 06:51:59;;;;;;;10.63;9.63;;;22.50;81.60;;;;;;5056699;28;20028;-83
2021/06/18 06:54:25;;;;;;;10.52;9.52;;;22.50;81.50;;;;;;5056880;28;20111;-83
2021/06/18 06:56:53;;;;;;;9.50;8.70;;;22.50;81.40;;;;;;5056689;28;20028;-83
2021/06/18 06:59:19;;;;;;;8.50;7.70;;;22.60;81.30;;;;;;5056682;28;20020;-82
2021/06/18 07:01:45;;;;;;;9.57;8.70;;;22.70;81.10;;;;;;5074579;28;20036;-83
2021/06/18 07:04:10;;;;;;;8.35;7.65;;;22.90;80.90;;;;;;5074306;28;20037;-83
2021/06/18 07:06:38;;;;;;;8.27;7.57;;;22.90;80.60;;;;;;5053280;28;20074;-83
2021/06/18 07:09:05;;;;;;;8.05;7.20;;;22.90;80.60;;;;;;5074389;28;20016;-84
2021/06/18 07:11:31;;;;;;;8.02;7.32;;;23.10;80.60;;;;;;5056477;28;20055;-84
2021/06/18 07:13:56;;;;;;;8.43;7.70;;;23.20;80.30;;;;;;5074203;28;20036;-84
2021/06/18 07:16:23;;;;;;;8.10;7.40;;;23.30;80.00;;;;;;5074248;28;20491;-84
2021/06/18 07:18:48;;;;;;;7.68;6.93;;;23.40;79.70;;;;;;5055948;28;20021;-82
2021/06/18 07:21:14;;;;;;;6.68;6.07;;;23.60;79.50;;;;;;5055969;28;20495;-83
2021/06/18 07:23:40;;;;;;;7.85;7.15;;;23.80;79.30;;;;;;5056317;28;20028;-84
2021/06/18 07:26:05;;;;;;;7.47;6.78;;;23.90;78.80;;;;;;5056119;28;20039;-83
2021/06/18 07:28:31;;;;;;;7.45;6.75;;;24.00;78.40;;;;;;5056214;28;20115;-84
2021/06/18 07:30:57;;;;;;;7.55;6.85;;;24.10;78.20;;;;;;5056314;28;20101;-83
2021/06/18 07:36:45;;;;;;;8.40;7.32;;;24.20;77.60;;;;;;5074326;28;20035;-83
2021/06/18 07:39:10;;;;;;;9.00;8.10;;;24.30;77.20;;;;;;5056048;28;20020;-86
2021/06/18 07:41:37;;;;;;;8.45;7.60;;;24.30;77.00;;;;;;5074089;28;20067;-84
2021/06/18 07:44:04;;;;;;;7.63;6.93;;;24.30;77.00;;;;;;5073757;28;20029;-85
2021/06/18 07:46:30;;;;;;;7.88;7.18;;;24.20;76.90;;;;;;5073705;28;20055;-84
2021/06/18 07:48:55;;;;;;;9.00;8.00;;;24.20;76.90;;;;;;5056151;28;20024;-86
2021/06/18 07:51:21;;;;;;;8.40;7.65;;;24.20;76.80;;;;;;5055853;28;20021;-84
2021/06/18 07:53:46;;;;;;;8.35;7.55;;;24.20;76.80;;;;;;5055782;28;20078;-84
2021/06/18 07:56:12;;;;;;;10.30;9.30;;;24.10;76.70;;;;;;5055269;28;20050;-84
2021/06/18 08:02:00;;;;;;;12.13;10.93;;;23.90;76.80;;;;;;5073694;28;20118;-75
2021/06/18 08:04:25;;;;;;;13.23;11.43;;;23.80;77.00;;;;;;5055555;28;20032;-76
2021/06/18 08:06:51;;;;;;;12.10;11.00;;;23.70;77.10;;;;;;5073480;28;20027;-75
2021/06/18 08:09:16;;;;;;;12.98;11.68;;;23.60;77.20;;;;;;5055470;28;20064;-77
2021/06/18 08:11:42;;;;;;;15.23;13.63;;;23.50;77.20;;;;;;5073363;28;20092;-75
2021/06/18 08:14:07;;;;;;;13.68;12.35;;;23.50;77.40;;;;;;5055421;28;20384;-76
2021/06/18 08:16:33;;;;;;;14.13;12.73;;;23.40;77.50;;;;;;5055277;28;20483;-76
2021/06/18 08:18:59;;;;;;;13.80;12.50;;;23.40;77.60;;;;;;5073174;28;20021;-76
2021/06/18 08:21:24;;;;;;;13.55;12.13;;;23.30;77.80;;;;;;5055568;28;20059;-75
2021/06/18 08:23:50;;;;;;;15.60;14.10;;;23.30;77.90;;;;;;5055258;28;20035;-76
2021/06/18 08:26:15;;;;;;;14.18;12.68;;;23.20;78.00;;;;;;5055100;28;20511;-76
2021/06/18 08:28:41;;;;;;;15.63;14.18;;;23.10;78.00;;;;;;5055124;28;20495;-75
2021/06/18 08:31:07;;;;;;;14.15;12.77;;;23.10;78.10;;;;;;5055762;28;20016;-76
2021/06/18 08:33:34;;;;;;;13.63;12.43;;;23.10;78.30;;;;;;5073809;28;20115;-78
2021/06/18 08:36:01;;;;;;;13.43;12.13;;;23.10;78.40;;;;;;5055235;28;20445;-77
2021/06/18 08:38:27;;;;;;;11.43;10.35;;;23.10;78.40;;;;;;5055390;28;20443;-77
2021/06/18 08:40:52;;;;;;;11.80;10.60;;;23.20;78.50;;;;;;5073845;28;20029;-78
2021/06/18 08:43:18;;;;;;;13.40;12.07;;;23.20;78.30;;;;;;5055825;28;20103;-77
2021/06/18 08:45:44;;;;;;;14.40;12.85;;;23.30;78.30;;;;;;5072870;28;20045;-78
2021/06/18 08:48:10;;;;;;;13.32;12.02;;;23.30;78.30;;;;;;5055260;28;20029;-78
2021/06/18 08:50:35;;;;;;;13.30;12.00;;;23.40;78.30;;;;;;5073149;28;20028;-78
2021/06/18 08:53:03;;;;;;;11.27;10.38;;;23.40;78.10;;;;;;5054682;28;20024;-75
2021/06/18 08:55:30;;;;;;;10.55;9.65;;;23.50;77.90;;;;;;5054726;28;20501;-76
2021/06/18 08:58:03;;;;;;;9.80;8.80;;;23.60;77.70;;;;;;5054809;28;20078;-76
2021/06/18 09:00:31;;;;;;;9.73;8.82;;;23.70;77.40;;;;;;5072636;28;20021;-76
2021/06/18 09:02:58;;;;;;;10.10;9.20;;;23.90;77.20;;;;;;5072687;28;20028;-76
2021/06/18 09:05:24;;;;;;;9.82;8.82;;;24.00;76.80;;;;;;5054854;28;20035;-77
2021/06/18 09:07:53;;;;;;;11.32;10.23;;;24.10;76.60;;;;;;5074370;28;20042;-77
2021/06/18 09:10:39;;;;;;;10.10;9.20;;;24.20;76.20;;;;;;5059204;28;20027;-76
2021/06/18 09:13:04;;;;;;;10.13;9.15;;;24.30;76.00;;;;;;5058704;28;20071;-76
2021/06/18 09:15:30;;;;;;;9.05;8.20;;;24.50;75.70;;;;;;5058735;28;20147;-74
2021/06/18 09:17:56;;;;;;;10.60;9.52;;;24.60;75.40;;;;;;5076885;28;20037;-77
2021/06/18 09:20:24;;;;;;;9.65;8.75;;;24.70;75.30;;;;;;5077340;28;20404;-77
2021/06/18 09:22:49;;;;;;;9.98;9.07;;;24.80;75.00;;;;;;5076681;28;20033;-76
2021/06/18 09:25:18;;;;;;;10.02;9.13;;;24.90;74.70;;;;;;5076565;28;20499;-76
2021/06/18 09:27:49;;;;;;;9.48;8.57;;;25.00;74.40;;;;;;5076715;28;20112;-76
2021/06/18 09:30:19;;;;;;;9.75;8.82;;;25.10;74.20;;;;;;5076355;28;20475;-75
2021/06/18 09:33:10;;;;;;;10.05;9.15;;;25.30;74.10;;;;;;5076608;28;20024;-76
2021/06/18 09:35:36;;;;;;;9.65;8.50;;;25.40;73.70;;;;;;5076190;28;20020;-77
2021/06/18 09:38:05;;;;;;;11.82;9.48;;;25.40;73.40;;;;;;5076243;28;20162;-76
2021/06/18 09:40:31;;;;;;;9.63;8.75;;;25.40;73.20;;;;;;5058605;28;20364;-76
2021/06/18 09:43:04;;;;;;;9.93;9.02;;;25.50;73.10;;;;;;5076002;28;20060;-75
2021/06/18 09:45:32;;;;;;;10.55;9.50;;;25.50;72.80;;;;;;5058297;28;20129;-74
2021/06/18 09:48:13;;;;;;;10.80;9.80;;;25.60;72.70;;;;;;5074218;28;20056;-75
2021/06/18 09:50:40;;;;;;;9.80;8.60;;;25.70;72.80;;;;;;5074364;28;20114;-76
2021/06/18 09:53:25;;;;;;;12.00;10.80;;;25.70;72.20;;;;;;5074518;28;20358;-75
2021/06/18 09:56:07;;;;;;;10.65;8.90;;;25.70;71.80;;;;;;5075576;28;20047;-75
2021/06/18 09:58:47;;;;;;;9.60;8.35;;;25.80;71.90;;;;;;5075847;28;20017;-76
2021/06/18 10:01:22;;;;;;;8.98;8.07;;;25.80;71.70;;;;;;5074727;28;20025;-76
2021/06/18 10:04:11;;;;;;;8.35;7.55;;;25.90;71.70;;;;;;5075691;28;20025;-75
2021/06/18 10:06:41;;;;;;;8.48;7.75;;;25.90;71.40;;;;;;5075834;28;20063;-76
2021/06/18 10:09:09;;;;;;;8.05;7.28;;;26.00;71.10;;;;;;5074354;28;20024;-76
2021/06/18 10:11:36;;;;;;;7.70;7.00;;;26.10;71.00;;;;;;5074223;28;20021;-75
2021/06/18 10:14:02;;;;;;;8.40;7.50;;;26.20;70.80;;;;;;5074311;28;20392;-74
2021/06/18 10:16:28;;;;;;;9.27;8.38;;;26.20;70.30;;;;;;5075117;28;20105;-75
2021/06/18 10:18:59;;;;;;;7.65;6.85;;;26.20;70.00;;;;;;5074003;28;20455;-76
2021/06/18 10:21:26;;;;;;;7.25;6.65;;;26.20;69.80;;;;;;5074332;28;20033;-76
2021/06/18 10:24:02;;;;;;;6.57;5.90;;;26.30;69.90;;;;;;5076448;28;20028;-76
2021/06/18 10:26:29;;;;;;;9.00;8.10;;;26.40;70.00;;;;;;5073907;28;20054;-77
2021/06/18 10:29:00;;;;;;;8.43;7.45;;;26.40;69.60;;;;;;5075241;28;20021;-77
2021/06/18 10:31:32;;;;;;;8.15;7.35;;;26.50;69.50;;;;;;5073841;28;20040;-77
2021/06/18 10:34:15;;;;;;;9.50;8.23;;;26.60;69.30;;;;;;5073815;28;20021;-77
2021/06/18 10:36:42;;;;;;;8.55;7.75;;;26.60;69.10;;;;;;5073744;28;20479;-83
2021/06/18 10:39:09;;;;;;;7.45;6.75;;;26.70;69.00;;;;;;5075227;28;20027;-82
2021/06/18 10:41:48;;;;;;;8.70;7.82;;;26.80;68.90;;;;;;5074193;28;20107;-85
2021/06/18 10:44:39;;;;;;;9.32;8.05;;;27.00;68.50;;;;;;5075001;28;20440;-85
2021/06/18 10:47:06;;;;;;;9.13;8.20;;;27.10;67.70;;;;;;5075752;28;20054;-85
2021/06/18 10:49:40;;;;;;;8.75;7.85;;;27.30;67.80;;;;;;5074720;28;20111;-85
2021/06/18 10:52:16;;;;;;;9.90;8.65;;;27.40;67.60;;;;;;5074358;28;20099;-85
2021/06/18 10:54:49;;;;;;;9.23;8.32;;;27.60;67.30;;;;;;5074241;28;20023;-84
2021/06/18 10:57:23;;;;;;;8.55;7.75;;;27.70;67.00;;;;;;5075454;28;20116;-85
2021/06/18 10:59:51;;;;;;;10.20;9.20;;;27.80;66.90;;;;;;5073973;28;20021;-84
2021/06/18 11:02:23;;;;;;;9.85;8.95;;;28.00;66.50;;;;;;5073859;28;20054;-85
2021/06/18 11:04:52;;;;;;;11.53;8.90;;;28.00;66.20;;;;;;5075097;28;20028;-85
2021/06/18 11:07:29;;;;;;;9.70;8.70;;;28.10;66.00;;;;;;5073307;28;20021;-84
2021/06/18 11:10:28;;;;;;;9.85;8.95;;;28.30;65.90;;;;;;5074853;28;20391;-84
2021/06/18 11:13:01;;;;;;;10.00;9.00;;;28.40;65.50;;;;;;5065873;28;20029;-83
2021/06/18 11:15:29;;;;;;;;;;;28.50;65.30;;;;;;5075333;28;20020;-85
2021/06/18 11:18:11;;;;;;;11.25;10.05;;;28.50;65.30;;;;;;5073176;28;19904;-84
2021/06/18 11:20:36;;;;;;;10.02;9.05;;;28.60;65.20;;;;;;5073230;28;20035;-85
2021/06/18 11:23:11;;;;;;;10.75;9.77;;;28.70;65.10;;;;;;5073212;28;20487;-85
2021/06/18 11:25:39;;;;;;;9.65;8.65;;;28.80;64.70;;;;;;5073475;28;20043;-86
2021/06/18 11:28:27;;;;;;;9.60;8.70;;;28.90;64.50;;;;;;5072941;28;20072;-84
2021/06/18 11:31:17;;;;;;;9.35;8.48;;;29.00;64.20;;;;;;5071732;28;20044;-84
2021/06/18 11:33:52;;;;;;;9.18;8.32;;;29.20;64.00;;;;;;5072688;28;20099;-85
2021/06/18 11:36:24;;;;;;;10.00;9.00;;;29.30;63.80;;;;;;5072688;28;20021;-85
2021/06/18 11:38:50;;;;;;;9.05;8.02;;;29.40;63.60;;;;;;5074256;28;20016;-85
2021/06/18 11:41:21;;;;;;;9.70;8.10;;;29.60;63.40;;;;;;5072747;28;20074;-81
2021/06/18 11:43:53;;;;;;;10.85;9.85;;;29.70;63.10;;;;;;5074355;28;20043;-85
2021/06/18 11:46:24;;;;;;;10.40;9.40;;;29.80;62.70;;;;;;5075490;28;20041;-87
2021/06/18 11:48:50;;;;;;;9.85;8.90;;;29.90;62.50;;;;;;5075676;28;20078;-87
2021/06/18 11:51:23;;;;;;;8.65;7.85;;;29.90;62.40;;;;;;5077763;28;20020;-88
2021/06/18 11:53:49;;;;;;;9.93;8.25;;;30.10;62.20;;;;;;5075498;28;20054;-87
2021/06/18 11:56:15;;;;;;;9.38;8.52;;;30.20;61.90;;;;;;5075640;28;20047;-88
2021/06/18 11:58:46;;;;;;;8.80;8.00;;;30.30;61.60;;;;;;5075057;28;20020;-88
2021/06/18 12:01:12;;;;;;;9.63;8.10;;;30.40;61.30;;;;;;5075956;28;20046;-88
2021/06/18 12:03:38;;;;;;;9.23;8.32;;;30.50;61.00;;;;;;5076176;28;20112;-87
2021/06/18 12:06:21;;;;;;;8.68;7.88;;;30.60;60.80;;;;;;5077296;28;20170;-88
2021/06/18 12:08:59;;;;;;;9.00;8.10;;;30.70;60.50;;;;;;5075769;28;20078;-88
2021/06/18 12:11:26;;;;;;;7.43;6.72;;;30.70;60.10;;;;;;5076988;28;20028;-88
2021/06/18 12:13:53;;;;;;;7.78;6.47;;;30.80;60.00;;;;;;5076784;28;20469;-88
2021/06/18 12:16:19;;;;;;;8.95;7.78;;;30.80;59.40;;;;;;5076612;28;20042;-88
2021/06/18 12:18:45;;;;;;;9.60;8.18;;;30.90;59.30;;;;;;5077408;28;20027;-87
2021/06/18 12:21:12;;;;;;;7.50;6.53;;;30.90;59.20;;;;;;5076133;28;20017;-87
2021/06/18 12:23:39;;;;;;;6.53;5.93;;;30.90;59.00;;;;;;5075812;28;20016;-88
2021/06/18 12:26:05;;;;;;;6.35;5.75;;;31.00;58.90;;;;;;5076017;28;20025;-87
2021/06/18 12:28:31;;;;;;;8.23;6.90;;;31.10;58.70;;;;;;5076483;28;20472;-88
2021/06/18 12:30:58;;;;;;;7.50;5.93;;;31.20;58.30;;;;;;5076626;28;20043;-87
2021/06/18 12:33:23;;;;;;;8.35;5.93;;;31.40;58.30;;;;;;5076230;28;20473;-87
2021/06/18 12:35:52;;;;;;;5.80;5.20;;;31.50;58.00;;;;;;5076848;28;20016;-88
2021/06/18 12:38:18;;;;;;;8.98;4.93;;;31.60;57.40;;;;;;5075455;28;20027;-82
2021/06/18 12:40:48;;;;;;;5.28;4.22;;;31.70;56.50;;;;;;5074783;28;20036;-79
2021/06/18 12:43:15;;;;;;;5.53;4.10;;;31.80;56.20;;;;;;5072619;28;20044;-82
2021/06/18 12:45:46;;;;;;;4.70;4.28;;;31.80;56.00;;;;;;5071526;28;20412;-82
2021/06/18 12:48:18;;;;;;;5.10;4.13;;;31.90;55.70;;;;;;5071464;28;20028;-82
2021/06/18 12:50:52;;;;;;;6.37;4.60;;;32.10;55.60;;;;;;5071689;28;20056;-82
2021/06/18 12:53:30;;;;;;;6.18;4.20;;;32.20;55.40;;;;;;5071667;28;20392;-82
2021/06/18 12:56:16;;;;;;;5.82;3.53;;;32.30;54.90;;;;;;5071384;28;20112;-83
2021/06/18 12:58:43;;;;;;;4.32;3.70;;;32.30;54.20;;;;;;5073006;28;20023;-82
2021/06/18 13:01:11;;;;;;;6.15;3.83;;;32.40;54.20;;;;;;5072654;28;20555;-82
2021/06/18 13:03:47;;;;;;;4.18;3.65;;;32.40;54.00;;;;;;5072864;28;20020;-83